Quad City International Airport
KMLI : rendu visible

Aérodrome :











RETROUVEZ-NOUS SUR...

 
LOGIN :

S'inscrire | Disclaimer

   EN    FR    IT 

 









Légende :    VFR   VFR Marginal   IFR   IFR Intensif   IFR Très Intensif
Visi : 
Plafond : 
>= 8 km
>= 3000ft
5 à 8 km
1000 à 3000 ft
1500m à 5 km
500 à 1000 ft
800 à 1500m
200 à 500 ft
< 800m
< 200 ft
Symboles :   Orages  Brouillard  Fortes neiges  Fortes précipitations  Vent > 20 kt






- Altitude de l'aérodrome : 590 ft
- Code IATA : MLI


KMLI - Quad City International

DERNIER METAR :
  • 162252Z 12007KT 7SM CLR 03/M02 A3020 RMK AO2 SLP232 T00331017

METARs EXPIRÉS :
  • 162152Z 11011KT 7SM CLR 06/M01 A3020 RMK AO2 SLP233 T00611011
  • 162052Z 11009KT 7SM CLR 07/M01 A3023 RMK AO2 SLP241 T00721011 56029

TAF KMLI
Valide du 17 à 00h jusqu'au 18 à 00h UTC


162329Z 1700/1724 12008KT 6SM BR BKN250
FM171500 19007KT 6SM BR OVC070
FM171700 21006KT 4SM -RA OVC035
FM172100 25007KT P6SM OVC018



MET'MAP, la Météo Aéronautique d'un coup d'oeil ! - Copyright ORBIFLY Décembre 2007 - Disclaimer

ORBIFLY MET'MAP TEAM :

Programmation & Développement : Alexandra Zaïnal
Conception & Développement : Baudouin d'Aumeries
Co-Programmation & Développement : Marc-Olivier Méhu
Soutien technique & logistique : Manuel Goepfert

Contact : metmap@orbifly.com




SOURCES & CREDITS :

   NOAA       Earth
Advisory